Time;durP1;ratioP1;P1;durP2;ratioP2;P2;SDS_P1;SDS_P2;PMS_P1;PMS_P2;Temp;Humidity;BMP_temperature;BMP_pressure;BME280_temperature;BME280_humidity;BME280_pressure;Samples;Min_cycle;Max_cycle;Signal;HPM_P1;HPM_P2
2021/12/25 00:03:54;;;;;;;10.90;6.13;;;;;;;-8.47;79.81;100904.22;10461109;28;20045;-69
2021/12/25 00:08:55;;;;;;;10.07;5.68;;;;;;;-8.97;79.67;100818.63;10460464;28;20378;-69
2021/12/25 00:13:56;;;;;;;9.98;5.07;;;;;;;-8.54;78.89;100866.59;10460246;28;20037;-69
2021/12/25 00:18:57;;;;;;;11.38;6.40;;;;;;;-8.42;79.46;100894.66;10460328;28;20044;-69
2021/12/25 00:23:58;;;;;;;10.88;6.35;;;;;;;-8.65;80.07;100851.38;10460851;28;20563;-69
2021/12/25 00:29:05;;;;;;;14.32;6.50;;;;;;;-8.28;80.05;100913.22;10460214;28;20095;-69
2021/12/25 00:34:06;;;;;;;11.05;5.95;;;;;;;-8.22;79.76;100898.50;10479576;28;20551;-69
2021/12/25 00:39:07;;;;;;;11.43;5.90;;;;;;;-8.43;79.87;100843.19;10500868;28;20087;-69
2021/12/25 00:44:08;;;;;;;12.13;6.13;;;;;;;-8.63;79.78;100799.84;10482472;28;20056;-69
2021/12/25 00:49:09;;;;;;;13.82;6.53;;;;;;;-8.06;79.87;100900.66;10501110;28;20064;-69
2021/12/25 00:54:10;;;;;;;17.23;6.72;;;;;;;-8.18;80.14;100848.56;10500746;28;20071;-69
2021/12/25 00:59:11;;;;;;;12.10;6.18;;;;;;;-8.85;79.50;100730.81;10500551;28;20389;-69
2021/12/25 01:04:12;;;;;;;27.63;7.10;;;;;;;-7.99;80.09;100865.25;10499779;28;20067;-69
2021/12/25 01:09:13;;;;;;;16.00;6.60;;;;;;;-7.83;80.13;100864.00;10499876;28;20123;-69
2021/12/25 01:14:27;;;;;;;16.98;6.95;;;;;;;-7.75;79.64;100863.78;10481978;28;20040;-70
2021/12/25 01:25:15;;;;;;;18.23;8.02;;;;;;;-7.64;80.57;100853.22;10498836;28;20044;-69
2021/12/25 01:30:22;;;;;;;16.45;7.13;;;;;;;-7.52;80.46;100854.63;10498935;28;20507;-69
2021/12/25 01:35:44;;;;;;;17.50;8.00;;;;;;;-7.87;80.31;100808.22;10499527;28;20044;-69
2021/12/25 01:40:57;;;;;;;19.65;9.07;;;;;;;-7.76;80.35;100850.94;10498562;28;20528;-69
2021/12/25 01:51:17;;;;;;;18.75;8.48;;;;;;;-8.19;81.07;100836.56;10497345;28;20109;-69
2021/12/25 01:56:18;;;;;;;22.77;8.45;;;;;;;-8.52;80.63;100774.69;10497703;28;20090;-69
2021/12/25 02:01:19;;;;;;;17.73;7.60;;;;;;;-9.37;81.12;100683.09;10497647;28;20055;-69
2021/12/25 02:06:20;;;;;;;17.45;7.45;;;;;;;-8.87;81.46;100793.53;10497900;28;20090;-69
2021/12/25 02:11:21;;;;;;;15.57;7.95;;;;;;;-9.29;81.89;100742.94;10497205;28;20060;-69
2021/12/25 02:16:26;;;;;;;16.00;7.78;;;;;;;-10.08;82.02;100614.31;10497045;28;20112;-69
2021/12/25 02:21:39;;;;;;;11.65;6.28;;;;;;;-10.02;81.29;100601.38;10496266;28;20067;-69
2021/12/25 02:26:44;;;;;;;10.35;4.90;;;;;;;-10.08;81.37;100567.22;10479686;28;20484;-69
2021/12/25 02:31:44;;;;;;;15.90;7.38;;;;;;;-9.53;82.11;100666.31;10497347;28;20036;-70
2021/12/25 02:36:45;;;;;;;14.65;6.90;;;;;;;-9.48;81.93;100675.63;10496224;28;20036;-69
2021/12/25 02:41:46;;;;;;;17.55;7.57;;;;;;;-8.99;81.83;100750.88;10495820;28;20032;-69
2021/12/25 02:46:49;;;;;;;11.68;6.45;;;;;;;-8.85;81.23;100722.25;10496191;28;20036;-69
2021/12/25 02:51:52;;;;;;;13.03;7.50;;;;;;;-8.75;81.02;100705.69;10496217;28;20151;-72
2021/12/25 02:56:53;;;;;;;13.00;6.80;;;;;;;-8.50;81.72;100731.69;10496453;28;20058;-70
2021/12/25 03:01:54;;;;;;;12.90;7.40;;;;;;;-8.71;81.12;100662.69;10496178;28;20415;-69
2021/12/25 03:06:54;;;;;;;17.10;7.20;;;;;;;-8.28;81.52;100748.28;10501920;28;20032;-69
2021/12/25 03:11:55;;;;;;;16.52;7.68;;;;;;;-8.84;81.55;100662.97;10505077;28;20048;-69
2021/12/25 03:16:56;;;;;;;19.52;8.35;;;;;;;-7.87;81.66;100786.75;10503571;28;20036;-70
2021/12/25 03:21:58;;;;;;;13.85;7.97;;;;;;;-7.78;81.44;100776.19;10496836;28;20102;-69
2021/12/25 03:26:59;;;;;;;16.05;7.90;;;;;;;-8.07;81.22;100703.06;10471520;28;20044;-69
2021/12/25 03:32:00;;;;;;;13.95;8.27;;;;;;;-8.28;81.26;100655.50;10471550;28;20040;-69
2021/12/25 03:37:01;;;;;;;15.63;7.85;;;;;;;-8.93;81.08;100585.97;10488387;28;20126;-70
2021/12/25 03:42:02;;;;;;;12.38;7.10;;;;;;;-7.80;81.63;100739.28;10501778;28;20043;-69
2021/12/25 03:47:13;;;;;;;17.83;8.38;;;;;;;-7.71;81.63;100730.47;10502326;28;20044;-69
2021/12/25 03:57:43;;;;;;;14.90;8.27;;;;;;;-7.67;81.60;100704.50;10461124;28;20052;-71
2021/12/25 04:02:55;;;;;;;15.40;9.00;;;;;;;-7.61;81.42;100706.91;10461066;28;20047;-68
2021/12/25 04:13:01;;;;;;;22.50;10.23;;;;;;;-8.05;82.17;100612.75;10460049;28;20032;-69
2021/12/25 04:18:04;;;;;;;24.90;12.23;;;;;;;-7.44;81.45;100726.25;10458500;28;20493;-69
2021/12/25 04:23:09;;;;;;;23.20;10.68;;;;;;;-7.33;81.34;100719.00;10460079;28;20049;-71
2021/12/25 04:28:38;;;;;;;21.67;11.10;;;;;;;-7.30;81.85;100712.91;10459963;28;20040;-70
2021/12/25 05:05:20;;;;;;;28.35;13.15;;;;;;;-6.75;82.30;100721.56;10499908;28;20050;-73
2021/12/25 05:10:21;;;;;;;24.88;12.23;;;;;;;-7.39;81.86;100588.44;10499226;28;20557;-70
2021/12/25 05:15:22;;;;;;;22.10;11.80;;;;;;;-6.56;81.98;100699.38;10499354;28;20044;-70
2021/12/25 05:20:24;;;;;;;22.10;11.20;;;;;;;-6.41;80.84;100713.53;10498522;28;20202;-70
2021/12/25 05:25:25;;;;;;;24.77;13.32;;;;;;;-6.64;81.22;100696.22;10499132;28;20044;-71
2021/12/25 05:30:27;;;;;;;22.77;11.55;;;;;;;-6.68;81.75;100694.63;10499091;28;20041;-70
2021/12/25 05:35:28;;;;;;;26.75;13.50;;;;;;;-6.69;81.54;100690.34;10498559;28;20044;-70
2021/12/25 05:40:29;;;;;;;24.75;12.88;;;;;;;-6.85;81.64;100624.56;10475381;28;20045;-70
2021/12/25 05:45:31;;;;;;;26.63;12.55;;;;;;;-6.39;81.17;100664.38;10478878;28;20135;-70
2021/12/25 05:50:32;;;;;;;23.27;12.07;;;;;;;-6.56;81.01;100649.44;10497682;28;20052;-74
2021/12/25 05:55:33;;;;;;;28.60;12.73;;;;;;;-6.19;80.81;100703.31;10497564;28;20047;-70
2021/12/25 06:00:36;;;;;;;27.05;13.65;;;;;;;-6.97;80.42;100550.91;10445047;28;20408;-70
2021/12/25 06:05:37;;;;;;;23.45;13.05;;;;;;;-6.00;80.19;100722.47;10438215;28;20516;-69
2021/12/25 06:10:38;;;;;;;26.42;13.57;;;;;;;-6.80;80.37;100579.59;10455746;28;20404;-69
2021/12/25 06:15:39;;;;;;;28.27;13.18;;;;;;;-6.64;80.58;100595.44;10455458;28;20041;-69
2021/12/25 06:20:41;;;;;;;26.88;13.75;;;;;;;-7.10;79.85;100521.25;10454929;28;20045;-69
2021/12/25 06:25:41;;;;;;;26.27;13.38;;;;;;;-5.97;80.56;100698.25;10455421;28;20044;-68
2021/12/25 06:30:44;;;;;;;25.70;13.75;;;;;;;-6.83;80.34;100550.47;10455350;28;20472;-69
2021/12/25 06:35:45;;;;;;;26.75;13.43;;;;;;;-5.76;80.71;100689.66;10455501;28;20044;-69
2021/12/25 06:40:45;;;;;;;27.08;13.55;;;;;;;-6.08;80.46;100560.69;10453709;28;20048;-69
2021/12/25 06:45:46;;;;;;;28.13;14.35;;;;;;;-4.95;79.09;100665.00;10454583;28;20045;-69
2021/12/25 06:50:47;;;;;;;24.65;13.88;;;;;;;-4.42;78.87;100658.53;10455658;28;20061;-70
2021/12/25 06:55:48;;;;;;;24.40;12.85;;;;;;;-4.27;77.75;100642.31;10454861;28;20036;-71
2021/12/25 07:00:49;;;;;;;26.42;14.05;;;;;;;-4.14;77.93;100648.63;10453942;28;20408;-69
2021/12/25 07:05:50;;;;;;;25.30;13.90;;;;;;;-4.14;77.03;100638.25;10453668;28;20124;-69
2021/12/25 07:10:51;;;;;;;26.67;13.32;;;;;;;-3.60;76.50;100674.78;10453626;28;20037;-69
2021/12/25 07:15:52;;;;;;;21.20;12.88;;;;;;;-3.77;76.31;100625.38;10460486;28;20036;-71
2021/12/25 07:20:53;;;;;;;31.58;14.00;;;;;;;-4.41;75.99;100518.41;10491244;28;20236;-69
2021/12/25 07:25:53;;;;;;;24.83;13.35;;;;;;;-3.58;75.78;100660.00;10481709;28;20048;-70
2021/12/25 07:30:58;;;;;;;27.75;14.13;;;;;;;-4.17;76.23;100542.41;10494502;28;20040;-72
2021/12/25 07:35:58;;;;;;;24.38;13.80;;;;;;;-4.06;75.63;100512.56;10477935;28;20045;-70
2021/12/25 07:40:59;;;;;;;24.27;13.27;;;;;;;-3.42;75.68;100545.84;10495404;28;20059;-71
2021/12/25 07:46:01;;;;;;;24.25;13.48;;;;;;;-2.66;74.06;100605.34;10495504;28;20127;-70
2021/12/25 07:51:05;;;;;;;31.02;13.32;;;;;;;-2.36;74.31;100637.63;10496676;28;20053;-70
2021/12/25 07:56:06;;;;;;;25.83;12.02;;;;;;;-2.58;73.11;100579.78;10502506;28;20861;-70
2021/12/25 08:01:07;;;;;;;21.25;11.35;;;;;;;-2.73;74.07;100598.78;10502186;28;20115;-70
2021/12/25 08:06:08;;;;;;;26.92;11.90;;;;;;;-2.65;74.57;100600.09;10501543;28;20041;-70
2021/12/25 08:11:08;;;;;;;19.65;10.63;;;;;;;-2.64;75.01;100596.56;10499926;28;20040;-70
2021/12/25 08:16:10;;;;;;;21.98;11.60;;;;;;;-2.62;75.16;100606.88;10499372;28;20036;-70
2021/12/25 08:21:11;;;;;;;15.43;8.88;;;;;;;-3.77;75.32;100400.41;10479559;28;20488;-70
2021/12/25 08:26:12;;;;;;;17.95;10.27;;;;;;;-2.59;75.22;100615.38;10499979;28;20036;-68
2021/12/25 08:31:13;;;;;;;21.05;10.98;;;;;;;-2.45;74.60;100567.84;10482945;28;20051;-69
2021/12/25 08:36:13;;;;;;;17.98;10.27;;;;;;;-2.03;75.01;100582.13;10460658;28;20045;-69
2021/12/25 08:41:14;;;;;;;18.38;10.20;;;;;;;-1.64;74.80;100594.75;10459984;28;20049;-69
2021/12/25 08:46:19;;;;;;;17.40;10.38;;;;;;;-1.63;74.09;100574.75;10458862;28;20037;-69
2021/12/25 08:51:19;;;;;;;;;;;;;;;-1.31;73.67;100585.19;10490123;28;20053;-69
2021/12/25 08:56:20;;;;;;;19.67;9.95;;;;;;;-2.27;73.81;100445.50;10481149;28;20015;-69
2021/12/25 09:01:21;;;;;;;18.58;11.20;;;;;;;-1.35;73.36;100555.81;10486384;28;20068;-70
2021/12/25 09:06:22;;;;;;;18.50;10.65;;;;;;;-1.13;73.27;100589.34;10482805;28;20091;-71
2021/12/25 09:11:24;;;;;;;18.77;11.27;;;;;;;-2.03;72.87;100446.78;10473238;28;20040;-70
2021/12/25 09:16:25;;;;;;;22.45;11.98;;;;;;;-1.50;72.98;100552.31;10458030;28;20048;-69
2021/12/25 09:21:26;;;;;;;20.42;11.55;;;;;;;-2.58;73.48;100379.53;10456658;28;20412;-70
2021/12/25 09:26:28;;;;;;;19.27;11.13;;;;;;;-1.10;73.23;100550.06;10457674;28;20090;-70
2021/12/25 09:31:30;;;;;;;17.42;10.90;;;;;;;-1.56;73.46;100458.88;10439825;28;20107;-70
2021/12/25 09:36:31;;;;;;;21.10;11.52;;;;;;;-1.81;73.90;100437.75;10455979;28;20048;-70
2021/12/25 09:41:33;;;;;;;20.30;11.32;;;;;;;-1.96;74.22;100390.81;10456949;28;20076;-69
2021/12/25 09:46:34;;;;;;;22.52;12.13;;;;;;;-1.43;73.88;100501.53;10457423;28;20041;-70
2021/12/25 09:51:35;;;;;;;20.02;11.18;;;;;;;-1.15;74.18;100531.22;10456007;28;20076;-71
2021/12/25 09:56:39;;;;;;;23.58;12.77;;;;;;;-1.72;74.26;100414.63;10456793;28;20072;-69
2021/12/25 10:01:46;;;;;;;23.98;13.18;;;;;;;-1.05;74.73;100508.91;10456122;28;20040;-71
2021/12/25 10:06:47;;;;;;;20.30;11.80;;;;;;;-1.92;74.49;100314.22;10455548;28;20134;-69
2021/12/25 10:12:09;;;;;;;15.00;8.80;;;;;;;-0.86;74.72;100442.63;10455933;28;20200;-72
2021/12/25 10:17:17;;;;;;;19.58;9.05;;;;;;;-1.55;75.91;100353.75;10454834;28;20036;-71
2021/12/25 10:22:18;;;;;;;16.50;9.57;;;;;;;-1.47;76.28;100380.16;10437531;28;20044;-71
2021/12/25 10:27:20;;;;;;;13.02;7.18;;;;;;;-1.21;76.49;100401.25;10462837;28;20048;-71
2021/12/25 10:32:23;;;;;;;15.85;8.63;;;;;;;-0.84;76.60;100440.75;10496573;28;20040;-71
2021/12/25 10:37:24;;;;;;;12.77;7.63;;;;;;;-1.41;76.94;100342.50;10477867;28;20076;-71
2021/12/25 10:42:33;;;;;;;12.60;6.53;;;;;;;-0.72;77.59;100437.41;10477938;28;20072;-71
2021/12/25 10:47:34;;;;;;;10.93;6.35;;;;;;;-0.95;78.18;100391.88;10491698;28;20040;-72
2021/12/25 10:52:41;;;;;;;12.90;6.72;;;;;;;-0.92;78.50;100405.56;10473383;28;20397;-75
2021/12/25 10:57:48;;;;;;;18.33;7.07;;;;;;;-1.40;78.80;100339.81;10452498;28;20127;-72
2021/12/25 11:02:59;;;;;;;14.32;7.88;;;;;;;-0.88;78.99;100428.84;10465294;28;20075;-72
2021/12/25 11:08:15;;;;;;;14.38;8.38;;;;;;;-1.41;78.75;100348.56;10467869;28;20500;-72
2021/12/25 11:13:37;;;;;;;10.23;6.32;;;;;;;-0.92;78.69;100416.00;10491208;28;20032;-72
2021/12/25 11:19:06;;;;;;;16.17;7.47;;;;;;;-0.52;79.09;100484.00;10472634;28;20045;-72
2021/12/25 11:24:14;;;;;;;13.82;7.72;;;;;;;-0.56;78.97;100474.69;10493882;28;20040;-70
2021/12/25 11:29:18;;;;;;;14.10;7.10;;;;;;;-0.32;78.45;100487.16;10498602;28;20040;-71
2021/12/25 11:34:21;;;;;;;16.55;7.43;;;;;;;-0.46;79.08;100491.44;10500789;28;20032;-71
2021/12/25 11:39:24;;;;;;;13.85;7.88;;;;;;;-1.34;79.62;100416.78;10500986;28;20071;-71
2021/12/25 11:44:38;;;;;;;17.88;7.53;;;;;;;-0.34;79.60;100523.78;10494616;28;20047;-71
2021/12/25 11:49:55;;;;;;;16.03;8.77;;;;;;;-0.46;79.92;100535.81;10500192;28;20044;-73
2021/12/25 11:55:24;;;;;;;13.00;7.80;;;;;;;-0.38;80.15;100522.31;10497482;28;20063;-71
2021/12/25 12:00:38;;;;;;;14.82;8.18;;;;;;;-0.46;79.04;100496.66;10480968;28;20056;-71
2021/12/25 12:05:39;;;;;;;16.98;9.30;;;;;;;-0.26;80.00;100572.94;10497333;28;20074;-72
2021/12/25 12:10:45;;;;;;;15.65;8.73;;;;;;;-0.07;79.83;100589.13;10500042;28;20594;-72
2021/12/25 12:15:51;;;;;;;16.17;8.68;;;;;;;-0.92;79.45;100433.41;10497222;28;20066;-74
2021/12/25 12:21:07;;;;;;;16.77;8.63;;;;;;;-1.02;80.42;100453.97;10477573;28;20094;-72
2021/12/25 12:26:12;;;;;;;15.48;8.52;;;;;;;-0.02;79.67;100600.16;10499484;28;20044;-72
2021/12/25 12:31:34;;;;;;;18.05;8.65;;;;;;;0.03;79.11;100596.41;10493551;28;20029;-72
2021/12/25 12:36:35;;;;;;;15.50;8.82;;;;;;;-0.97;79.93;100446.72;10472407;28;20079;-72
2021/12/25 12:41:42;;;;;;;19.67;8.18;;;;;;;0.01;79.36;100570.41;10469428;28;20500;-71
2021/12/25 12:46:49;;;;;;;21.77;9.60;;;;;;;-0.09;79.93;100590.16;10460384;28;20374;-72
2021/12/25 12:52:19;;;;;;;20.30;10.75;;;;;;;-0.09;80.13;100593.63;10466320;28;20481;-72
2021/12/25 12:57:22;;;;;;;27.92;14.38;;;;;;;-0.53;80.06;100546.72;10500552;28;20116;-72
2021/12/25 13:02:27;;;;;;;23.02;10.07;;;;;;;-0.15;80.16;100625.34;10475799;28;20090;-73
2021/12/25 13:07:31;;;;;;;17.33;9.20;;;;;;;-0.27;80.55;100603.44;10479529;28;20046;-73
2021/12/25 13:17:38;;;;;;;21.38;11.20;;;;;;;-0.96;79.64;100524.03;10497868;28;20032;-73
2021/12/25 13:22:39;;;;;;;16.77;9.05;;;;;;;-0.29;81.13;100662.72;10497052;28;20098;-72
2021/12/25 13:27:40;;;;;;;19.90;9.20;;;;;;;-0.39;80.80;100632.88;10496589;28;20108;-72
2021/12/25 13:32:40;;;;;;;19.02;9.63;;;;;;;-0.39;80.64;100647.66;10487384;28;20048;-72
2021/12/25 13:37:41;;;;;;;20.02;8.93;;;;;;;-1.48;81.41;100498.34;10476677;28;20396;-72
2021/12/25 13:42:42;;;;;;;17.30;8.65;;;;;;;-0.72;80.95;100609.56;10493265;28;20102;-74
2021/12/25 13:47:43;;;;;;;16.77;9.02;;;;;;;-0.82;81.94;100624.91;10486530;28;20045;-72
2021/12/25 13:52:53;;;;;;;15.68;9.57;;;;;;;-0.91;82.32;100604.59;10466456;28;20115;-72
2021/12/25 13:57:58;;;;;;;17.48;8.77;;;;;;;-2.48;82.26;100370.31;10456653;28;20178;-72
2021/12/25 14:03:04;;;;;;;17.55;8.95;;;;;;;-0.56;82.18;100667.78;10473571;28;20033;-72
2021/12/25 14:08:06;;;;;;;18.90;8.88;;;;;;;-0.76;82.30;100668.91;10490207;28;20055;-71
2021/12/25 14:13:20;;;;;;;17.58;8.55;;;;;;;-0.71;82.94;100706.03;10474125;28;20048;-71
2021/12/25 14:18:29;;;;;;;19.70;8.75;;;;;;;-0.74;81.87;100676.66;10456266;28;20040;-71
2021/12/25 14:23:29;;;;;;;18.02;9.20;;;;;;;-1.29;82.74;100604.16;10455257;28;20041;-71
2021/12/25 14:28:34;;;;;;;15.07;8.63;;;;;;;-1.64;83.01;100549.66;10455991;28;20041;-71
2021/12/25 14:33:39;;;;;;;;;;;;;;;-0.70;82.86;100679.00;10466393;28;20064;-71
2021/12/25 14:38:43;;;;;;;14.60;8.77;;;;;;;-0.81;82.88;100667.50;10455674;28;20378;-71
2021/12/25 14:43:44;;;;;;;;;;;;;;;-0.76;82.02;100655.88;10454461;28;20397;-71
2021/12/25 14:48:45;;;;;;;17.88;8.90;;;;;;;-1.55;82.09;100517.03;10455601;28;19917;-71
2021/12/25 14:53:55;;;;;;;19.15;9.70;;;;;;;-2.48;83.39;100380.72;10465238;28;20044;-72
2021/12/25 14:59:19;;;;;;;16.52;9.80;;;;;;;-0.89;82.95;100613.19;10484380;28;20080;-74
2021/12/25 15:04:32;;;;;;;17.02;9.00;;;;;;;-1.71;83.14;100543.09;10467087;28;20551;-71
2021/12/25 15:09:43;;;;;;;18.05;9.48;;;;;;;-0.80;83.18;100675.25;10485461;28;20044;-71
2021/12/25 15:14:51;;;;;;;15.63;8.73;;;;;;;-0.89;83.27;100656.69;10483298;28;20122;-72
2021/12/25 15:20:24;;;;;;;17.77;9.05;;;;;;;-0.71;82.71;100666.91;10480722;28;20048;-71
2021/12/25 15:25:26;;;;;;;17.90;9.17;;;;;;;-0.89;82.97;100646.25;10468407;28;20126;-71
2021/12/25 15:30:32;;;;;;;16.70;8.88;;;;;;;-0.89;83.50;100636.66;10468863;28;20098;-72
2021/12/25 15:35:36;;;;;;;17.90;8.98;;;;;;;-1.47;83.47;100535.66;10477022;28;20042;-71
2021/12/25 15:40:46;;;;;;;16.00;8.90;;;;;;;-0.64;83.75;100666.53;10470928;28;20540;-71
2021/12/25 15:45:47;;;;;;;17.17;9.45;;;;;;;-1.76;83.30;100485.22;10483580;28;20042;-71
2021/12/25 15:50:48;;;;;;;16.40;9.82;;;;;;;-0.93;83.31;100609.91;10490011;28;20480;-71
2021/12/25 15:55:49;;;;;;;18.83;10.80;;;;;;;-0.65;83.45;100644.00;10483261;28;20036;-71
2021/12/25 16:00:51;;;;;;;25.02;10.40;;;;;;;-1.67;83.99;100484.69;10483722;28;20037;-70
2021/12/25 16:05:52;;;;;;;19.73;9.95;;;;;;;-0.87;84.67;100645.19;10489454;28;20404;-70
2021/12/25 16:10:54;;;;;;;22.45;10.80;;;;;;;-0.70;84.04;100657.28;10485555;28;20052;-71
2021/12/25 16:15:59;;;;;;;17.27;10.05;;;;;;;-1.66;84.52;100488.97;10490909;28;20040;-71
2021/12/25 16:21:00;;;;;;;21.95;10.95;;;;;;;-0.63;84.35;100642.94;10481284;28;20536;-72
2021/12/25 16:26:01;;;;;;;23.20;10.45;;;;;;;-0.59;84.56;100618.38;10487971;28;20156;-72
2021/12/25 16:31:02;;;;;;;19.85;8.82;;;;;;;-1.07;84.47;100508.16;10489034;28;20574;-71
2021/12/25 16:36:06;;;;;;;19.70;9.55;;;;;;;-0.57;85.10;100594.78;10493154;28;20044;-71
2021/12/25 16:41:08;;;;;;;20.75;9.98;;;;;;;-0.61;85.87;100583.69;10492926;28;20132;-71
2021/12/25 16:46:11;;;;;;;21.40;10.80;;;;;;;-1.48;86.46;100441.03;10492606;28;20111;-71
2021/12/25 16:51:13;;;;;;;19.83;11.30;;;;;;;-0.78;86.32;100558.63;10490608;28;20052;-70
2021/12/25 16:56:14;;;;;;;21.85;12.02;;;;;;;-1.01;85.16;100536.50;10489688;28;20047;-71
2021/12/25 17:01:16;;;;;;;25.35;13.18;;;;;;;-0.95;85.41;100530.06;10492736;28;20048;-71
2021/12/25 17:06:16;;;;;;;25.20;12.98;;;;;;;-1.48;84.20;100441.03;10492842;28;20516;-72
2021/12/25 17:11:17;;;;;;;25.02;13.63;;;;;;;-0.50;83.71;100606.56;10491820;28;20050;-71
2021/12/25 17:16:18;;;;;;;25.75;13.25;;;;;;;-0.47;84.31;100615.03;10491596;28;20036;-71
2021/12/25 17:21:19;;;;;;;26.20;13.18;;;;;;;-1.11;83.65;100501.44;10491486;28;20036;-73
2021/12/25 17:26:21;;;;;;;24.70;13.18;;;;;;;-1.23;83.67;100476.09;10491116;28;20114;-72
2021/12/25 17:31:22;;;;;;;25.67;13.73;;;;;;;-1.33;83.62;100465.38;10492310;28;20037;-73
2021/12/25 17:36:23;;;;;;;21.95;11.77;;;;;;;-0.34;83.55;100617.75;10490102;28;20032;-72
2021/12/25 17:41:35;;;;;;;21.80;12.15;;;;;;;-0.57;82.74;100558.25;10491006;28;20044;-71
2021/12/25 17:46:36;;;;;;;21.30;11.82;;;;;;;-0.24;83.02;100604.97;10487309;28;20037;-70
2021/12/25 17:51:38;;;;;;;25.88;12.52;;;;;;;-1.74;82.93;100358.34;10496662;28;20056;-70
2021/12/25 17:56:39;;;;;;;24.25;12.68;;;;;;;-0.27;81.90;100598.19;10490261;28;20064;-71
2021/12/25 18:01:39;;;;;;;22.77;12.05;;;;;;;-0.34;82.71;100606.47;10485663;28;20491;-71
2021/12/25 18:06:40;;;;;;;23.50;12.85;;;;;;;-0.54;83.14;100560.69;10493408;28;20154;-70
2021/12/25 18:11:41;;;;;;;22.50;13.77;;;;;;;-0.39;82.81;100580.69;10495182;28;20106;-71
2021/12/25 18:16:43;;;;;;;23.17;13.10;;;;;;;-0.45;82.97;100578.41;10486289;28;20048;-71
2021/12/25 18:21:44;;;;;;;22.00;12.82;;;;;;;-0.08;82.34;100641.47;10486736;28;20055;-71
2021/12/25 18:26:45;;;;;;;25.25;13.52;;;;;;;-0.38;82.35;100595.38;10484846;28;20040;-70
2021/12/25 18:31:46;;;;;;;23.85;13.43;;;;;;;-0.39;82.94;100592.84;10486565;28;20036;-71
2021/12/25 18:36:47;;;;;;;22.17;12.93;;;;;;;-1.09;83.42;100470.06;10469839;28;20071;-72
2021/12/25 18:41:49;;;;;;;23.52;14.05;;;;;;;-0.32;82.82;100628.13;10485231;28;20044;-71
2021/12/25 18:46:49;;;;;;;24.40;15.07;;;;;;;-0.85;83.00;100553.84;10488002;28;20062;-73
2021/12/25 18:51:51;;;;;;;24.70;13.90;;;;;;;-0.31;82.83;100632.41;10463107;28;20068;-70
2021/12/25 18:56:52;;;;;;;24.60;13.30;;;;;;;-1.03;82.58;100507.03;10459064;28;20041;-70
2021/12/25 19:01:54;;;;;;;22.35;13.25;;;;;;;-0.52;83.23;100606.63;10458499;28;20049;-71
2021/12/25 19:06:54;;;;;;;24.55;12.73;;;;;;;-0.45;82.85;100635.81;10523804;28;20431;-70
2021/12/25 19:11:55;;;;;;;23.63;14.25;;;;;;;-0.36;83.06;100644.88;10536448;28;20040;-71
2021/12/25 19:16:56;;;;;;;30.40;15.68;;;;;;;-0.99;83.43;100532.03;10531288;28;20071;-72
2021/12/25 19:21:57;;;;;;;24.30;12.30;;;;;;;-0.80;83.18;100547.44;10510806;28;20085;-69
2021/12/25 19:26:58;;;;;;;23.98;12.15;;;;;;;-0.37;83.08;100612.72;10487861;28;20037;-69
2021/12/25 19:31:59;;;;;;;24.98;13.63;;;;;;;0.01;84.04;100680.09;10479907;28;20051;-72
2021/12/25 19:37:00;;;;;;;23.00;13.25;;;;;;;-0.46;83.52;100614.09;10460184;28;20412;-69
2021/12/25 19:42:01;;;;;;;23.45;13.75;;;;;;;0.06;83.42;100672.84;10455536;28;20069;-69
2021/12/25 19:47:03;;;;;;;21.88;13.15;;;;;;;0.16;83.50;100688.78;10455138;28;20048;-69
2021/12/25 19:52:04;;;;;;;24.92;12.63;;;;;;;0.12;83.72;100697.72;10461032;28;20064;-69
2021/12/25 19:57:06;;;;;;;21.35;12.90;;;;;;;-0.05;84.52;100662.19;10460138;28;20124;-69
2021/12/25 20:02:07;;;;;;;20.90;13.10;;;;;;;-0.40;84.85;100612.06;10459914;28;20076;-69
2021/12/25 20:07:08;;;;;;;26.25;13.00;;;;;;;-0.52;85.01;100601.41;10458854;28;20064;-70
2021/12/25 20:12:14;;;;;;;29.08;13.50;;;;;;;0.10;85.68;100694.38;10486634;28;20064;-69
2021/12/25 20:17:14;;;;;;;25.73;12.68;;;;;;;0.01;85.52;100674.88;10460487;28;20080;-70
2021/12/25 20:22:15;;;;;;;24.23;13.82;;;;;;;-0.26;85.44;100619.94;10442260;28;20076;-69
2021/12/25 20:27:16;;;;;;;24.92;14.05;;;;;;;0.20;86.13;100692.88;10460038;28;20045;-69
2021/12/25 20:32:17;;;;;;;23.30;12.95;;;;;;;0.03;85.89;100651.25;10459416;28;20412;-69
2021/12/25 20:37:18;;;;;;;25.13;13.38;;;;;;;-0.01;86.22;100641.00;10464189;28;20047;-69
2021/12/25 20:42:20;;;;;;;23.35;12.43;;;;;;;-0.27;85.81;100628.66;10497514;28;20189;-69
2021/12/25 20:47:21;;;;;;;23.58;12.75;;;;;;;-0.21;86.31;100624.84;10501273;28;20389;-70
2021/12/25 20:52:22;;;;;;;25.38;13.90;;;;;;;-0.14;86.82;100649.69;10501315;28;20065;-69
2021/12/25 20:57:23;;;;;;;28.65;14.30;;;;;;;-0.16;86.23;100625.44;10482083;28;20506;-69
2021/12/25 21:02:24;;;;;;;26.77;14.15;;;;;;;-1.24;87.21;100441.38;10499008;28;20175;-69
2021/12/25 21:07:27;;;;;;;25.27;14.13;;;;;;;-2.34;86.63;100253.31;10499599;28;20047;-69
2021/12/25 21:12:27;;;;;;;27.55;15.45;;;;;;;-0.27;86.59;100597.34;10500582;28;20082;-69
2021/12/25 21:17:28;;;;;;;27.48;15.30;;;;;;;0.04;86.87;100629.44;10500077;28;20044;-69
2021/12/25 21:22:29;;;;;;;27.13;13.90;;;;;;;-0.26;86.52;100601.66;10499217;28;20082;-69
2021/12/25 21:27:30;;;;;;;30.48;15.10;;;;;;;-0.07;86.72;100610.03;10498688;28;20040;-69
2021/12/25 21:32:32;;;;;;;30.60;15.68;;;;;;;-0.40;86.17;100547.66;10481372;28;20408;-69
2021/12/25 21:37:34;;;;;;;30.25;15.38;;;;;;;-0.47;86.88;100536.75;10499326;28;20048;-69
2021/12/25 21:42:35;;;;;;;26.40;14.63;;;;;;;0.02;87.04;100631.31;10497790;28;20041;-70
2021/12/25 21:47:36;;;;;;;25.67;13.77;;;;;;;-0.10;87.56;100578.88;10499467;28;20501;-69
2021/12/25 21:52:38;;;;;;;26.92;14.25;;;;;;;-0.06;86.99;100584.75;10498508;28;20393;-70
2021/12/25 21:57:40;;;;;;;26.85;14.35;;;;;;;-0.12;87.24;100559.00;10497566;28;20047;-69
2021/12/25 22:02:41;;;;;;;25.13;13.57;;;;;;;-0.10;86.97;100562.38;10480379;28;20051;-69
2021/12/25 22:07:43;;;;;;;21.98;13.32;;;;;;;-0.04;87.05;100562.84;10497039;28;20048;-70
2021/12/25 22:12:45;;;;;;;28.65;13.52;;;;;;;-0.62;87.86;100464.63;10479302;28;20048;-70
2021/12/25 22:17:46;;;;;;;29.98;14.70;;;;;;;0.36;88.18;100619.59;10479515;28;20044;-69
2021/12/25 22:22:47;;;;;;;23.92;13.88;;;;;;;-1.42;87.55;100320.81;10496313;28;20044;-69
2021/12/25 22:27:50;;;;;;;24.45;13.55;;;;;;;0.27;87.34;100594.91;10496719;28;20478;-69
2021/12/25 22:32:52;;;;;;;29.10;12.88;;;;;;;-0.08;87.20;100518.75;10497321;28;20377;-69
2021/12/25 22:37:56;;;;;;;25.75;13.63;;;;;;;0.06;88.44;100533.53;10478395;28;20044;-70
2021/12/25 22:42:57;;;;;;;23.55;13.23;;;;;;;0.39;87.88;100595.88;10478950;28;20456;-69
2021/12/25 22:47:58;;;;;;;26.33;13.10;;;;;;;0.23;87.70;100565.50;10496190;28;20052;-69
2021/12/25 22:52:59;;;;;;;21.65;13.68;;;;;;;-0.34;88.25;100502.06;10496683;28;20063;-69
2021/12/25 22:58:01;;;;;;;23.88;13.20;;;;;;;0.10;87.94;100540.25;10495443;28;20393;-70
2021/12/25 23:03:04;;;;;;;24.73;13.77;;;;;;;-0.42;87.38;100458.16;10495360;28;20056;-72
2021/12/25 23:08:12;;;;;;;22.25;13.15;;;;;;;0.39;87.76;100591.53;10496464;28;20455;-69
2021/12/25 23:13:14;;;;;;;25.92;13.63;;;;;;;0.18;87.45;100562.34;10494929;28;20036;-70
2021/12/25 23:18:17;;;;;;;22.90;12.82;;;;;;;-0.69;87.98;100432.00;10495644;28;20044;-69
2021/12/25 23:23:18;;;;;;;24.52;13.65;;;;;;;0.57;87.21;100617.41;10499825;28;20124;-70
2021/12/25 23:28:20;;;;;;;24.77;14.13;;;;;;;0.61;87.55;100611.06;10504664;28;20452;-71
2021/12/25 23:33:21;;;;;;;22.33;13.20;;;;;;;0.49;87.52;100606.63;10503731;28;20040;-70
2021/12/25 23:38:23;;;;;;;24.92;13.48;;;;;;;-0.40;87.21;100455.47;10503459;28;20048;-69
2021/12/25 23:43:28;;;;;;;24.05;13.13;;;;;;;0.19;86.94;100571.88;10502767;28;20032;-70
2021/12/25 23:48:29;;;;;;;23.00;12.93;;;;;;;0.07;87.23;100548.28;10502280;28;20488;-70
2021/12/25 23:53:31;;;;;;;24.48;12.82;;;;;;;-0.42;87.20;100489.47;10503255;28;20045;-69